sensor_id;sensor_type;location;lat;lon;timestamp;pressure;altitude;pressure_sealevel;temperature;humidity
4598;BME280;62772;48.646;8.906;2022-08-14T00:02:24;95945.91;;;16.18;69.47
4598;BME280;62772;48.646;8.906;2022-08-14T00:07:28;95943.56;;;16.36;68.19
4598;BME280;62772;48.646;8.906;2022-08-14T00:12:29;95930.94;;;16.20;68.05
4598;BME280;62772;48.646;8.906;2022-08-14T00:17:30;95930.56;;;16.41;68.13
4598;BME280;62772;48.646;8.906;2022-08-14T00:22:33;95916.53;;;16.32;67.20
4598;BME280;62772;48.646;8.906;2022-08-14T00:27:34;95911.03;;;16.05;68.79
4598;BME280;62772;48.646;8.906;2022-08-14T00:32:34;95909.31;;;16.17;67.84
4598;BME280;62772;48.646;8.906;2022-08-14T00:37:40;95905.47;;;16.18;68.06
4598;BME280;62772;48.646;8.906;2022-08-14T00:42:41;95895.59;;;16.02;68.35
4598;BME280;62772;48.646;8.906;2022-08-14T00:47:44;95898.69;;;15.49;70.89
4598;BME280;62772;48.646;8.906;2022-08-14T00:52:49;95899.38;;;15.62;70.88
4598;BME280;62772;48.646;8.906;2022-08-14T00:57:51;95895.63;;;15.31;72.38
4598;BME280;62772;48.646;8.906;2022-08-14T01:03:10;95901.16;;;15.38;72.25
4598;BME280;62772;48.646;8.906;2022-08-14T01:08:15;95898.63;;;14.62;75.22
4598;BME280;62772;48.646;8.906;2022-08-14T01:13:19;95893.31;;;14.82;74.13
4598;BME280;62772;48.646;8.906;2022-08-14T01:18:21;95897.84;;;14.94;74.15
4598;BME280;62772;48.646;8.906;2022-08-14T01:23:46;95882.25;;;15.19;72.66
4598;BME280;62772;48.646;8.906;2022-08-14T01:28:48;95873.88;;;14.88;74.07
4598;BME280;62772;48.646;8.906;2022-08-14T01:33:54;95888.00;;;15.01;73.50
4598;BME280;62772;48.646;8.906;2022-08-14T01:38:59;95881.34;;;15.11;72.67
4598;BME280;62772;48.646;8.906;2022-08-14T01:44:02;95869.13;;;14.82;73.59
4598;BME280;62772;48.646;8.906;2022-08-14T01:49:06;95872.78;;;14.90;73.42
4598;BME280;62772;48.646;8.906;2022-08-14T01:54:12;95873.22;;;14.60;74.85
4598;BME280;62772;48.646;8.906;2022-08-14T01:59:19;95869.25;;;13.69;78.65
4598;BME280;62772;48.646;8.906;2022-08-14T02:04:22;95856.00;;;14.32;76.01
4598;BME280;62772;48.646;8.906;2022-08-14T02:09:26;95858.75;;;14.20;76.35
4598;BME280;62772;48.646;8.906;2022-08-14T02:14:27;95851.59;;;13.02;81.54
4598;BME280;62772;48.646;8.906;2022-08-14T02:19:30;95848.09;;;14.08;77.13
4598;BME280;62772;48.646;8.906;2022-08-14T02:24:33;95831.28;;;14.27;75.67
4598;BME280;62772;48.646;8.906;2022-08-14T02:29:34;95833.13;;;14.39;75.63
4598;BME280;62772;48.646;8.906;2022-08-14T02:34:36;95822.34;;;14.07;77.10
4598;BME280;62772;48.646;8.906;2022-08-14T02:39:42;95821.22;;;13.92;77.59
4598;BME280;62772;48.646;8.906;2022-08-14T02:44:43;95807.78;;;13.64;79.46
4598;BME280;62772;48.646;8.906;2022-08-14T02:49:44;95804.81;;;13.81;78.92
4598;BME280;62772;48.646;8.906;2022-08-14T02:54:47;95798.97;;;14.07;77.42
4598;BME280;62772;48.646;8.906;2022-08-14T02:59:49;95799.78;;;13.79;78.63
4598;BME280;62772;48.646;8.906;2022-08-14T03:04:50;95798.75;;;13.56;79.26
4598;BME280;62772;48.646;8.906;2022-08-14T03:09:56;95791.28;;;13.77;78.32
4598;BME280;62772;48.646;8.906;2022-08-14T03:14:56;95782.75;;;13.88;77.90
4598;BME280;62772;48.646;8.906;2022-08-14T03:19:58;95773.22;;;13.90;77.42
4598;BME280;62772;48.646;8.906;2022-08-14T03:25:01;95766.63;;;13.88;77.00
4598;BME280;62772;48.646;8.906;2022-08-14T03:30:03;95753.50;;;13.54;78.79
4598;BME280;62772;48.646;8.906;2022-08-14T03:35:04;95759.78;;;13.46;79.31
4598;BME280;62772;48.646;8.906;2022-08-14T03:40:10;95746.69;;;13.57;79.10
4598;BME280;62772;48.646;8.906;2022-08-14T03:45:11;95757.78;;;13.71;78.21
4598;BME280;62772;48.646;8.906;2022-08-14T03:50:13;95760.53;;;13.59;78.48
4598;BME280;62772;48.646;8.906;2022-08-14T03:55:16;95750.44;;;12.87;81.42
4598;BME280;62772;48.646;8.906;2022-08-14T04:00:17;95743.53;;;12.86;82.35
4598;BME280;62772;48.646;8.906;2022-08-14T04:05:18;95749.06;;;12.93;81.64
4598;BME280;62772;48.646;8.906;2022-08-14T04:10:21;95743.63;;;12.77;82.77
4598;BME280;62772;48.646;8.906;2022-08-14T04:15:22;95729.28;;;13.10;81.23
4598;BME280;62772;48.646;8.906;2022-08-14T04:20:23;95731.91;;;13.22;80.19
4598;BME280;62772;48.646;8.906;2022-08-14T04:25:26;95736.06;;;12.67;82.98
4598;BME280;62772;48.646;8.906;2022-08-14T04:30:27;95741.78;;;12.28;85.79
4598;BME280;62772;48.646;8.906;2022-08-14T04:35:28;95738.53;;;12.35;86.32
4598;BME280;62772;48.646;8.906;2022-08-14T04:40:31;95744.50;;;12.94;83.50
4598;BME280;62772;48.646;8.906;2022-08-14T04:45:51;95746.53;;;12.84;83.88
4598;BME280;62772;48.646;8.906;2022-08-14T04:50:53;95746.31;;;11.57;90.23
4598;BME280;62772;48.646;8.906;2022-08-14T04:55:57;95741.47;;;11.84;90.47
4598;BME280;62772;48.646;8.906;2022-08-14T05:00:59;95759.72;;;12.28;88.29
4598;BME280;62772;48.646;8.906;2022-08-14T05:06:02;95763.09;;;11.91;89.78
4598;BME280;62772;48.646;8.906;2022-08-14T05:11:06;95757.59;;;12.83;87.02
4598;BME280;62772;48.646;8.906;2022-08-14T05:16:07;95747.84;;;13.31;83.16
4598;BME280;62772;48.646;8.906;2022-08-14T05:21:08;95747.16;;;13.47;82.53
4598;BME280;62772;48.646;8.906;2022-08-14T05:26:11;95746.44;;;13.78;83.11
4598;BME280;62772;48.646;8.906;2022-08-14T05:31:14;95741.44;;;13.92;81.95
4598;BME280;62772;48.646;8.906;2022-08-14T05:36:17;95735.41;;;13.95;83.40
4598;BME280;62772;48.646;8.906;2022-08-14T05:41:20;95730.53;;;14.01;83.40
4598;BME280;62772;48.646;8.906;2022-08-14T05:46:21;95731.34;;;14.18;83.29
4598;BME280;62772;48.646;8.906;2022-08-14T05:51:23;95730.97;;;14.35;81.85
4598;BME280;62772;48.646;8.906;2022-08-14T05:56:26;95732.06;;;14.50;81.89
4598;BME280;62772;48.646;8.906;2022-08-14T06:01:27;95727.13;;;14.52;83.31
4598;BME280;62772;48.646;8.906;2022-08-14T06:06:28;95725.66;;;14.71;83.11
4598;BME280;62772;48.646;8.906;2022-08-14T06:11:31;95721.81;;;14.87;83.73
4598;BME280;62772;48.646;8.906;2022-08-14T06:16:32;95710.53;;;15.01;82.96
4598;BME280;62772;48.646;8.906;2022-08-14T06:21:33;95701.63;;;15.17;82.34
4598;BME280;62772;48.646;8.906;2022-08-14T06:26:36;95697.81;;;15.37;81.89
4598;BME280;62772;48.646;8.906;2022-08-14T06:31:37;95702.25;;;15.49;81.08
4598;BME280;62772;48.646;8.906;2022-08-14T06:36:38;95695.28;;;15.68;81.38
4598;BME280;62772;48.646;8.906;2022-08-14T06:41:41;95685.09;;;15.77;78.62
4598;BME280;62772;48.646;8.906;2022-08-14T06:46:42;95667.06;;;15.81;78.75
4598;BME280;62772;48.646;8.906;2022-08-14T06:51:42;95673.47;;;15.96;79.82
4598;BME280;62772;48.646;8.906;2022-08-14T06:56:48;95661.22;;;16.25;77.33
4598;BME280;62772;48.646;8.906;2022-08-14T07:01:49;95640.69;;;16.40;76.34
4598;BME280;62772;48.646;8.906;2022-08-14T07:07:08;95638.03;;;16.44;75.67
4598;BME280;62772;48.646;8.906;2022-08-14T07:12:11;95649.53;;;16.71;72.73
4598;BME280;62772;48.646;8.906;2022-08-14T07:17:13;95647.19;;;16.96;71.56
4598;BME280;62772;48.646;8.906;2022-08-14T07:22:13;95644.47;;;17.30;71.51
4598;BME280;62772;48.646;8.906;2022-08-14T07:27:17;95657.13;;;17.22;69.71
4598;BME280;62772;48.646;8.906;2022-08-14T07:32:17;95663.78;;;17.73;68.14
4598;BME280;62772;48.646;8.906;2022-08-14T07:37:18;95653.56;;;17.90;66.30
4598;BME280;62772;48.646;8.906;2022-08-14T07:42:22;95658.03;;;18.20;62.88
4598;BME280;62772;48.646;8.906;2022-08-14T07:47:22;95655.81;;;18.33;63.95
4598;BME280;62772;48.646;8.906;2022-08-14T07:52:23;95661.81;;;18.71;61.84
4598;BME280;62772;48.646;8.906;2022-08-14T07:57:27;95667.28;;;18.78;62.24
4598;BME280;62772;48.646;8.906;2022-08-14T08:02:30;95674.78;;;19.13;61.11
4598;BME280;62772;48.646;8.906;2022-08-14T08:07:31;95671.31;;;19.13;59.97
4598;BME280;62772;48.646;8.906;2022-08-14T08:12:35;95673.34;;;19.45;58.43
4598;BME280;62772;48.646;8.906;2022-08-14T08:17:36;95664.09;;;19.64;58.79
4598;BME280;62772;48.646;8.906;2022-08-14T08:22:38;95657.97;;;19.78;58.68
4598;BME280;62772;48.646;8.906;2022-08-14T08:27:52;95654.50;;;20.20;54.86
4598;BME280;62772;48.646;8.906;2022-08-14T08:32:54;95659.50;;;20.22;55.45
4598;BME280;62772;48.646;8.906;2022-08-14T08:38:01;95661.44;;;20.43;55.73
4598;BME280;62772;48.646;8.906;2022-08-14T08:43:06;95646.34;;;20.31;55.83
4598;BME280;62772;48.646;8.906;2022-08-14T08:48:07;95638.53;;;20.76;54.46
4598;BME280;62772;48.646;8.906;2022-08-14T08:53:09;95632.28;;;20.87;53.18
4598;BME280;62772;48.646;8.906;2022-08-14T08:58:14;95630.34;;;20.83;52.83
4598;BME280;62772;48.646;8.906;2022-08-14T09:03:17;95631.78;;;21.13;52.33
4598;BME280;62772;48.646;8.906;2022-08-14T09:08:21;95643.28;;;21.39;51.69
4598;BME280;62772;48.646;8.906;2022-08-14T09:13:26;95635.13;;;21.39;51.25
4598;BME280;62772;48.646;8.906;2022-08-14T09:18:27;95630.91;;;21.38;50.98
4598;BME280;62772;48.646;8.906;2022-08-14T09:23:28;95637.13;;;21.95;48.56
4598;BME280;62772;48.646;8.906;2022-08-14T09:28:31;95636.41;;;21.90;48.24
4598;BME280;62772;48.646;8.906;2022-08-14T09:33:54;95629.06;;;22.33;46.95
4598;BME280;62772;48.646;8.906;2022-08-14T09:39:07;95602.69;;;22.26;47.38
4598;BME280;62772;48.646;8.906;2022-08-14T09:44:26;95588.88;;;22.06;48.50
4598;BME280;62772;48.646;8.906;2022-08-14T09:49:30;95588.69;;;22.66;47.18
4598;BME280;62772;48.646;8.906;2022-08-14T09:54:36;95608.63;;;22.55;46.46
4598;BME280;62772;48.646;8.906;2022-08-14T09:59:42;95600.06;;;22.91;46.73
4598;BME280;62772;48.646;8.906;2022-08-14T10:04:44;95573.09;;;23.00;42.91
4598;BME280;62772;48.646;8.906;2022-08-14T10:09:46;95575.19;;;22.89;45.25
4598;BME280;62772;48.646;8.906;2022-08-14T10:14:50;95568.72;;;23.38;43.11
4598;BME280;62772;48.646;8.906;2022-08-14T10:19:51;95569.75;;;23.47;44.04
4598;BME280;62772;48.646;8.906;2022-08-14T10:24:52;95567.16;;;23.64;43.34
4598;BME280;62772;48.646;8.906;2022-08-14T10:29:57;95552.00;;;23.63;42.79
4598;BME280;62772;48.646;8.906;2022-08-14T10:35:05;95550.63;;;23.75;43.80
4598;BME280;62772;48.646;8.906;2022-08-14T10:40:08;95533.03;;;23.55;44.27
4598;BME280;62772;48.646;8.906;2022-08-14T10:45:19;95520.84;;;23.87;43.63
4598;BME280;62772;48.646;8.906;2022-08-14T10:50:28;95517.78;;;23.85;42.49
4598;BME280;62772;48.646;8.906;2022-08-14T10:55:33;95504.56;;;23.84;42.32
4598;BME280;62772;48.646;8.906;2022-08-14T11:00:53;95505.63;;;23.90;41.38
4598;BME280;62772;48.646;8.906;2022-08-14T11:05:54;95512.03;;;24.23;39.05
4598;BME280;62772;48.646;8.906;2022-08-14T11:10:57;95515.50;;;24.04;39.49
4598;BME280;62772;48.646;8.906;2022-08-14T11:16:01;95515.94;;;24.22;40.09
4598;BME280;62772;48.646;8.906;2022-08-14T11:21:03;95514.28;;;24.49;39.48
4598;BME280;62772;48.646;8.906;2022-08-14T11:26:07;95511.25;;;24.43;38.07
4598;BME280;62772;48.646;8.906;2022-08-14T11:31:11;95516.03;;;24.79;37.25
4598;BME280;62772;48.646;8.906;2022-08-14T11:36:14;95514.22;;;24.72;37.02
4598;BME280;62772;48.646;8.906;2022-08-14T11:41:15;95495.56;;;24.67;36.77
4598;BME280;62772;48.646;8.906;2022-08-14T11:46:19;95490.38;;;24.93;38.77
4598;BME280;62772;48.646;8.906;2022-08-14T11:51:21;95490.63;;;25.15;37.95
4598;BME280;62772;48.646;8.906;2022-08-14T11:56:33;95477.94;;;24.72;37.34
4598;BME280;62772;48.646;8.906;2022-08-14T12:01:37;95470.41;;;25.12;37.58
4598;BME280;62772;48.646;8.906;2022-08-14T12:06:46;95466.50;;;25.13;35.85
4598;BME280;62772;48.646;8.906;2022-08-14T12:11:48;95470.22;;;25.20;36.45
4598;BME280;62772;48.646;8.906;2022-08-14T12:17:00;95459.09;;;25.47;34.71
4598;BME280;62772;48.646;8.906;2022-08-14T12:22:01;95450.88;;;25.30;36.62
4598;BME280;62772;48.646;8.906;2022-08-14T12:27:04;95440.41;;;26.20;34.97
4598;BME280;62772;48.646;8.906;2022-08-14T12:32:08;95437.69;;;25.75;34.61
4598;BME280;62772;48.646;8.906;2022-08-14T12:37:08;95434.63;;;25.73;34.12
4598;BME280;62772;48.646;8.906;2022-08-14T12:42:09;95426.03;;;25.87;33.83
4598;BME280;62772;48.646;8.906;2022-08-14T12:47:14;95420.94;;;25.73;34.65
4598;BME280;62772;48.646;8.906;2022-08-14T12:52:26;95416.56;;;25.75;34.35
4598;BME280;62772;48.646;8.906;2022-08-14T12:57:35;95407.97;;;25.89;34.34
4598;BME280;62772;48.646;8.906;2022-08-14T13:02:39;95411.72;;;26.12;33.25
4598;BME280;62772;48.646;8.906;2022-08-14T13:07:41;95408.44;;;26.17;32.52
4598;BME280;62772;48.646;8.906;2022-08-14T13:12:43;95394.78;;;26.30;32.34
4598;BME280;62772;48.646;8.906;2022-08-14T13:17:50;95402.78;;;26.50;32.16
4598;BME280;62772;48.646;8.906;2022-08-14T13:22:52;95378.78;;;26.29;32.66
4598;BME280;62772;48.646;8.906;2022-08-14T13:27:56;95379.88;;;27.21;29.85
4598;BME280;62772;48.646;8.906;2022-08-14T13:33:00;95378.16;;;26.63;30.60
4598;BME280;62772;48.646;8.906;2022-08-14T13:38:05;95379.22;;;27.17;29.21
4598;BME280;62772;48.646;8.906;2022-08-14T13:43:06;95372.22;;;27.16;28.24
4598;BME280;62772;48.646;8.906;2022-08-14T13:48:10;95361.03;;;27.58;28.17
4598;BME280;62772;48.646;8.906;2022-08-14T13:53:11;95358.66;;;27.47;28.60
4598;BME280;62772;48.646;8.906;2022-08-14T13:58:14;95351.47;;;27.63;28.70
4598;BME280;62772;48.646;8.906;2022-08-14T14:03:19;95352.94;;;27.55;28.52
4598;BME280;62772;48.646;8.906;2022-08-14T14:08:22;95345.06;;;26.96;30.09
4598;BME280;62772;48.646;8.906;2022-08-14T14:13:24;95341.56;;;27.43;28.32
4598;BME280;62772;48.646;8.906;2022-08-14T14:18:27;95341.47;;;27.34;30.21
4598;BME280;62772;48.646;8.906;2022-08-14T14:23:29;95326.09;;;27.49;29.09
4598;BME280;62772;48.646;8.906;2022-08-14T14:28:31;95319.75;;;27.40;28.49
4598;BME280;62772;48.646;8.906;2022-08-14T14:33:34;95307.97;;;27.17;28.43
4598;BME280;62772;48.646;8.906;2022-08-14T14:38:37;95311.97;;;27.03;29.88
4598;BME280;62772;48.646;8.906;2022-08-14T14:43:42;95297.19;;;27.23;31.45
4598;BME280;62772;48.646;8.906;2022-08-14T14:48:50;95300.22;;;27.03;31.01
4598;BME280;62772;48.646;8.906;2022-08-14T14:53:52;95298.16;;;26.94;30.83
4598;BME280;62772;48.646;8.906;2022-08-14T14:58:53;95294.31;;;26.91;32.16
4598;BME280;62772;48.646;8.906;2022-08-14T15:03:57;95286.78;;;26.95;29.88
4598;BME280;62772;48.646;8.906;2022-08-14T15:09:00;95285.59;;;26.84;31.63
4598;BME280;62772;48.646;8.906;2022-08-14T15:14:01;95280.00;;;26.87;31.32
4598;BME280;62772;48.646;8.906;2022-08-14T15:19:04;95278.63;;;27.05;32.46
4598;BME280;62772;48.646;8.906;2022-08-14T15:24:05;95273.25;;;27.14;31.84
4598;BME280;62772;48.646;8.906;2022-08-14T15:29:06;95279.66;;;26.98;32.03
4598;BME280;62772;48.646;8.906;2022-08-14T15:34:10;95275.78;;;27.08;31.63
4598;BME280;62772;48.646;8.906;2022-08-14T15:39:12;95279.53;;;27.02;31.02
4598;BME280;62772;48.646;8.906;2022-08-14T15:44:13;95284.75;;;27.09;31.54
4598;BME280;62772;48.646;8.906;2022-08-14T15:49:16;95277.44;;;27.28;31.59
4598;BME280;62772;48.646;8.906;2022-08-14T15:54:18;95284.25;;;27.23;30.47
4598;BME280;62772;48.646;8.906;2022-08-14T15:59:19;95279.25;;;27.09;32.35
4598;BME280;62772;48.646;8.906;2022-08-14T16:04:22;95283.28;;;26.95;32.95
4598;BME280;62772;48.646;8.906;2022-08-14T16:09:23;95288.00;;;26.82;33.06
4598;BME280;62772;48.646;8.906;2022-08-14T16:14:24;95287.22;;;26.94;31.10
4598;BME280;62772;48.646;8.906;2022-08-14T16:19:30;95294.59;;;26.58;35.72
4598;BME280;62772;48.646;8.906;2022-08-14T16:24:32;95287.72;;;26.67;37.97
4598;BME280;62772;48.646;8.906;2022-08-14T16:29:37;95283.59;;;26.97;31.26
4598;BME280;62772;48.646;8.906;2022-08-14T16:34:41;95288.22;;;26.87;33.60
4598;BME280;62772;48.646;8.906;2022-08-14T16:39:42;95275.69;;;26.99;33.25
4598;BME280;62772;48.646;8.906;2022-08-14T16:44:45;95293.09;;;27.05;34.43
4598;BME280;62772;48.646;8.906;2022-08-14T16:49:49;95285.63;;;27.06;34.15
4598;BME280;62772;48.646;8.906;2022-08-14T16:54:51;95279.22;;;27.00;34.49
4598;BME280;62772;48.646;8.906;2022-08-14T16:59:53;95280.97;;;26.93;34.60
4598;BME280;62772;48.646;8.906;2022-08-14T17:05:14;95284.38;;;26.85;35.07
4598;BME280;62772;48.646;8.906;2022-08-14T17:10:14;95295.03;;;26.83;34.88
4598;BME280;62772;48.646;8.906;2022-08-14T17:15:15;95290.19;;;26.74;35.46
4598;BME280;62772;48.646;8.906;2022-08-14T17:20:21;95282.56;;;26.69;35.19
4598;BME280;62772;48.646;8.906;2022-08-14T17:25:26;95277.72;;;26.60;35.04
4598;BME280;62772;48.646;8.906;2022-08-14T17:30:46;95268.44;;;26.45;35.06
4598;BME280;62772;48.646;8.906;2022-08-14T17:36:07;95269.50;;;26.34;35.65
4598;BME280;62772;48.646;8.906;2022-08-14T17:41:18;95266.69;;;26.25;36.25
4598;BME280;62772;48.646;8.906;2022-08-14T17:46:33;95273.59;;;26.30;36.44
4598;BME280;62772;48.646;8.906;2022-08-14T17:51:52;95276.22;;;26.08;36.54
4598;BME280;62772;48.646;8.906;2022-08-14T17:56:52;95281.56;;;25.98;37.13
4598;BME280;62772;48.646;8.906;2022-08-14T18:01:53;95280.09;;;25.81;37.44
4598;BME280;62772;48.646;8.906;2022-08-14T18:07:00;95279.19;;;25.71;37.56
4598;BME280;62772;48.646;8.906;2022-08-14T18:12:02;95281.53;;;25.85;37.59
4598;BME280;62772;48.646;8.906;2022-08-14T18:17:06;95280.38;;;25.57;37.61
4598;BME280;62772;48.646;8.906;2022-08-14T18:22:10;95281.59;;;25.69;37.38
4598;BME280;62772;48.646;8.906;2022-08-14T18:27:15;95282.47;;;25.37;38.37
4598;BME280;62772;48.646;8.906;2022-08-14T18:32:38;95283.81;;;25.15;38.50
4598;BME280;62772;48.646;8.906;2022-08-14T18:37:44;95288.69;;;25.08;39.29
4598;BME280;62772;48.646;8.906;2022-08-14T18:42:47;95285.72;;;24.86;39.48
4598;BME280;62772;48.646;8.906;2022-08-14T18:48:06;95286.41;;;24.73;39.92
4598;BME280;62772;48.646;8.906;2022-08-14T18:53:09;95294.00;;;24.66;40.33
4598;BME280;62772;48.646;8.906;2022-08-14T18:58:16;95291.03;;;24.60;40.47
4598;BME280;62772;48.646;8.906;2022-08-14T19:08:57;95303.00;;;24.30;41.51
4598;BME280;62772;48.646;8.906;2022-08-14T19:13:58;95309.72;;;24.61;42.86
4598;BME280;62772;48.646;8.906;2022-08-14T19:19:01;95311.34;;;24.75;45.18
4598;BME280;62772;48.646;8.906;2022-08-14T19:24:10;95311.06;;;24.86;44.34
4598;BME280;62772;48.646;8.906;2022-08-14T19:29:22;95316.09;;;24.71;45.20
4598;BME280;62772;48.646;8.906;2022-08-14T19:34:37;95327.88;;;24.85;44.58
4598;BME280;62772;48.646;8.906;2022-08-14T19:39:52;95323.16;;;24.52;46.59
4598;BME280;62772;48.646;8.906;2022-08-14T19:44:55;95332.59;;;24.48;47.48
4598;BME280;62772;48.646;8.906;2022-08-14T19:49:56;95327.03;;;24.35;48.07
4598;BME280;62772;48.646;8.906;2022-08-14T19:55:01;95330.09;;;24.20;48.53
4598;BME280;62772;48.646;8.906;2022-08-14T20:00:14;95329.78;;;24.35;48.38
4598;BME280;62772;48.646;8.906;2022-08-14T20:05:16;95333.44;;;24.65;48.11
4598;BME280;62772;48.646;8.906;2022-08-14T20:10:28;95341.00;;;24.57;46.77
4598;BME280;62772;48.646;8.906;2022-08-14T20:15:32;95355.78;;;24.39;46.92
4598;BME280;62772;48.646;8.906;2022-08-14T20:20:35;95344.91;;;24.19;47.61
4598;BME280;62772;48.646;8.906;2022-08-14T20:25:41;95347.47;;;24.10;49.10
4598;BME280;62772;48.646;8.906;2022-08-14T20:30:43;95347.25;;;24.01;49.51
4598;BME280;62772;48.646;8.906;2022-08-14T20:35:45;95333.97;;;24.03;48.88
4598;BME280;62772;48.646;8.906;2022-08-14T20:40:54;95345.09;;;23.92;49.38
4598;BME280;62772;48.646;8.906;2022-08-14T20:45:55;95350.81;;;23.78;50.13
4598;BME280;62772;48.646;8.906;2022-08-14T20:51:18;95356.38;;;23.94;49.71
4598;BME280;62772;48.646;8.906;2022-08-14T20:56:22;95352.50;;;23.92;49.45
4598;BME280;62772;48.646;8.906;2022-08-14T21:01:35;95357.25;;;23.87;50.39
4598;BME280;62772;48.646;8.906;2022-08-14T21:06:39;95363.44;;;23.68;49.61
4598;BME280;62772;48.646;8.906;2022-08-14T21:11:40;95359.41;;;23.76;49.38
4598;BME280;62772;48.646;8.906;2022-08-14T21:16:48;95361.97;;;23.63;49.85
4598;BME280;62772;48.646;8.906;2022-08-14T21:21:52;95360.63;;;23.31;50.04
4598;BME280;62772;48.646;8.906;2022-08-14T21:26:54;95359.03;;;23.54;49.58
4598;BME280;62772;48.646;8.906;2022-08-14T21:31:57;95358.69;;;23.52;49.50
4598;BME280;62772;48.646;8.906;2022-08-14T21:36:59;95366.03;;;23.55;50.20
4598;BME280;62772;48.646;8.906;2022-08-14T21:42:02;95365.13;;;23.42;50.08
4598;BME280;62772;48.646;8.906;2022-08-14T21:47:08;95362.97;;;23.06;51.98
4598;BME280;62772;48.646;8.906;2022-08-14T21:52:11;95378.09;;;23.10;53.38
4598;BME280;62772;48.646;8.906;2022-08-14T21:57:15;95389.03;;;22.79;53.96
4598;BME280;62772;48.646;8.906;2022-08-14T22:02:19;95386.09;;;22.94;53.72
4598;BME280;62772;48.646;8.906;2022-08-14T22:07:20;95382.56;;;22.70;53.49
4598;BME280;62772;48.646;8.906;2022-08-14T22:12:20;95381.50;;;22.63;52.73
4598;BME280;62772;48.646;8.906;2022-08-14T22:17:24;95373.19;;;22.47;53.59
4598;BME280;62772;48.646;8.906;2022-08-14T22:22:24;95374.78;;;22.44;53.09
4598;BME280;62772;48.646;8.906;2022-08-14T22:27:26;95363.94;;;22.10;59.87
4598;BME280;62772;48.646;8.906;2022-08-14T22:32:30;95366.97;;;22.16;67.23
4598;BME280;62772;48.646;8.906;2022-08-14T22:37:31;95362.56;;;21.64;69.86
4598;BME280;62772;48.646;8.906;2022-08-14T22:42:31;95347.34;;;20.87;72.23
4598;BME280;62772;48.646;8.906;2022-08-14T22:47:36;95349.75;;;21.23;72.85
4598;BME280;62772;48.646;8.906;2022-08-14T22:52:37;95371.91;;;21.59;70.93
4598;BME280;62772;48.646;8.906;2022-08-14T22:57:38;95388.47;;;21.72;70.78
4598;BME280;62772;48.646;8.906;2022-08-14T23:02:43;95376.78;;;21.37;70.04
4598;BME280;62772;48.646;8.906;2022-08-14T23:07:44;95377.00;;;21.57;70.05
4598;BME280;62772;48.646;8.906;2022-08-14T23:12:48;95376.38;;;21.38;69.80
4598;BME280;62772;48.646;8.906;2022-08-14T23:17:53;95369.59;;;20.63;70.31
4598;BME280;62772;48.646;8.906;2022-08-14T23:22:54;95368.09;;;21.08;67.96
4598;BME280;62772;48.646;8.906;2022-08-14T23:27:55;95371.72;;;20.94;66.41
4598;BME280;62772;48.646;8.906;2022-08-14T23:32:58;95360.25;;;20.72;66.88
4598;BME280;62772;48.646;8.906;2022-08-14T23:37:59;95354.34;;;20.84;68.39
4598;BME280;62772;48.646;8.906;2022-08-14T23:43:03;95342.97;;;20.47;69.76
4598;BME280;62772;48.646;8.906;2022-08-14T23:48:10;95353.78;;;20.51;70.00
4598;BME280;62772;48.646;8.906;2022-08-14T23:53:17;95349.91;;;20.52;70.07
4598;BME280;62772;48.646;8.906;2022-08-14T23:58:19;95335.88;;;20.61;70.01
